Time;durP1;ratioP1;P1;durP2;ratioP2;P2;SDS_P1;SDS_P2;PMS_P1;PMS_P2;Temp;Humidity;BMP_temperature;BMP_pressure;BME280_temperature;BME280_humidity;BME280_pressure;Samples;Min_cycle;Max_cycle;Signal;HPM_P1;HPM_P2
2023/05/11 00:00:28;;;;;;;6.75;3.40;;;11.40;99.90;;;;;;5086307;28;20032;-66
2023/05/11 00:02:54;;;;;;;5.28;3.15;;;11.40;99.90;;;;;;5087821;28;20023;-67
2023/05/11 00:05:20;;;;;;;5.43;3.08;;;11.30;99.90;;;;;;5091843;28;20110;-65
2023/05/11 00:07:45;;;;;;;6.22;3.08;;;11.20;99.90;;;;;;5089392;28;20032;-65
2023/05/11 00:10:11;;;;;;;7.47;3.20;;;11.10;99.90;;;;;;5086716;28;20103;-68
2023/05/11 00:12:36;;;;;;;7.50;3.33;;;11.10;99.90;;;;;;5088630;28;20105;-68
2023/05/11 00:15:02;;;;;;;7.18;2.88;;;11.00;99.90;;;;;;5090456;28;20039;-65
2023/05/11 00:17:28;;;;;;;5.93;3.50;;;10.90;99.90;;;;;;5094607;28;20465;-66
2023/05/11 00:19:54;;;;;;;5.88;2.65;;;10.90;99.90;;;;;;5084039;28;20043;-66
2023/05/11 00:22:20;;;;;;;6.35;2.65;;;10.90;99.90;;;;;;5087365;28;20032;-66
2023/05/11 00:24:45;;;;;;;9.70;3.00;;;10.80;99.90;;;;;;5088209;28;20468;-66
2023/05/11 00:27:11;;;;;;;8.18;3.20;;;10.80;99.90;;;;;;5087520;28;20031;-68
2023/05/11 00:29:36;;;;;;;7.80;3.33;;;10.80;99.90;;;;;;5087628;28;20038;-67
2023/05/11 00:32:02;;;;;;;9.00;2.92;;;10.80;99.90;;;;;;5087802;28;20039;-67
2023/05/11 00:34:28;;;;;;;10.52;3.38;;;10.70;99.90;;;;;;5087784;28;20515;-67
2023/05/11 00:36:54;;;;;;;6.32;2.78;;;10.70;99.90;;;;;;5084360;28;20525;-68
2023/05/11 00:39:19;;;;;;;6.22;2.88;;;10.70;99.90;;;;;;5085477;28;20028;-66
2023/05/11 00:41:45;;;;;;;7.75;2.70;;;10.70;99.90;;;;;;5088295;28;20453;-66
2023/05/11 00:44:11;;;;;;;7.07;2.97;;;10.60;99.90;;;;;;5080882;28;20864;-66
2023/05/11 00:46:36;;;;;;;13.48;3.20;;;10.70;99.90;;;;;;5090370;28;20723;-66
2023/05/11 00:49:02;;;;;;;6.80;2.88;;;10.60;99.90;;;;;;5086554;28;20040;-66
2023/05/11 00:51:30;;;;;;;4.78;2.67;;;10.60;99.90;;;;;;5090014;28;20039;-67
2023/05/11 00:53:57;;;;;;;6.13;2.83;;;10.60;99.90;;;;;;5087033;28;20131;-68
2023/05/11 00:56:22;;;;;;;4.57;2.80;;;10.60;99.90;;;;;;5088065;28;20031;-67
2023/05/11 00:58:48;;;;;;;6.32;2.95;;;10.60;99.90;;;;;;5084110;28;20028;-64
2023/05/11 01:01:16;;;;;;;4.72;2.63;;;10.60;99.90;;;;;;5083692;28;20112;-68
2023/05/11 01:03:42;;;;;;;4.85;2.67;;;10.60;99.90;;;;;;5086905;28;20123;-66
2023/05/11 01:06:23;;;;;;;5.85;2.80;;;10.60;99.90;;;;;;5086562;28;20657;-67
2023/05/11 01:09:05;;;;;;;5.00;2.92;;;10.60;99.90;;;;;;5091249;28;20027;-63
2023/05/11 01:11:52;;;;;;;6.13;3.05;;;10.60;99.90;;;;;;5088245;28;20464;-68
2023/05/11 01:14:20;;;;;;;9.18;3.03;;;10.60;99.90;;;;;;5077272;28;20465;-66
2023/05/11 01:16:52;;;;;;;6.32;3.05;;;10.50;99.90;;;;;;5084094;28;20036;-67
2023/05/11 01:19:42;;;;;;;9.05;2.58;;;10.60;99.90;;;;;;5091105;28;20032;-66
2023/05/11 01:22:31;;;;;;;4.70;2.78;;;10.60;99.90;;;;;;5083909;28;20028;-68
2023/05/11 01:25:30;;;;;;;6.78;2.85;;;10.60;99.90;;;;;;5086101;28;20043;-66
2023/05/11 01:27:56;;;;;;;5.75;2.70;;;10.60;99.90;;;;;;5082747;28;20943;-65
2023/05/11 01:30:24;;;;;;;6.72;2.78;;;10.60;99.90;;;;;;5088730;28;20043;-64
2023/05/11 01:32:52;;;;;;;14.13;3.55;;;10.60;99.90;;;;;;5097196;28;20032;-62
2023/05/11 01:35:20;;;;;;;3.90;2.65;;;10.60;99.90;;;;;;5091619;28;20484;-67
2023/05/11 01:37:50;;;;;;;4.93;2.75;;;10.60;99.90;;;;;;5093472;28;20031;-68
2023/05/11 01:40:17;;;;;;;7.93;2.72;;;10.60;99.90;;;;;;5093222;28;20044;-65
2023/05/11 01:42:48;;;;;;;4.63;2.58;;;10.60;99.90;;;;;;5096487;28;20032;-66
2023/05/11 01:45:16;;;;;;;4.53;2.55;;;10.60;99.90;;;;;;5092010;28;20205;-66
2023/05/11 01:47:44;;;;;;;8.07;2.72;;;10.60;99.90;;;;;;5084474;28;20611;-66
2023/05/11 01:50:11;;;;;;;10.70;2.60;;;10.70;99.90;;;;;;5090709;28;20050;-68
2023/05/11 01:52:38;;;;;;;3.95;2.40;;;10.70;99.90;;;;;;5090569;28;20365;-66
2023/05/11 01:55:06;;;;;;;8.43;2.60;;;10.70;99.90;;;;;;5080878;28;20687;-67
2023/05/11 01:57:32;;;;;;;7.88;2.97;;;10.70;99.90;;;;;;5092088;28;20036;-67
2023/05/11 02:00:00;;;;;;;6.68;2.58;;;10.60;99.90;;;;;;5091151;28;20439;-66
2023/05/11 02:02:28;;;;;;;5.38;2.75;;;10.60;99.90;;;;;;5093475;28;20036;-67
2023/05/11 02:04:54;;;;;;;5.10;2.75;;;10.50;99.90;;;;;;5090443;28;20028;-63
2023/05/11 02:07:22;;;;;;;4.80;2.50;;;10.50;99.90;;;;;;5084578;28;20032;-67
2023/05/11 02:09:49;;;;;;;7.05;3.00;;;10.50;99.90;;;;;;5094637;28;20043;-68
2023/05/11 02:12:18;;;;;;;5.18;2.80;;;10.50;99.90;;;;;;5089943;28;20053;-66
2023/05/11 02:14:45;;;;;;;5.10;2.47;;;10.50;99.90;;;;;;5093393;28;20039;-67
2023/05/11 02:17:14;;;;;;;3.65;2.60;;;10.50;99.90;;;;;;5095004;28;20028;-67
2023/05/11 02:19:42;;;;;;;6.35;2.88;;;10.40;99.90;;;;;;5089575;28;20050;-66
2023/05/11 02:22:08;;;;;;;8.15;2.90;;;10.40;99.90;;;;;;5088629;28;20024;-66
2023/05/11 02:24:35;;;;;;;5.93;2.40;;;10.30;99.90;;;;;;5077447;28;20772;-66
2023/05/11 02:27:00;;;;;;;4.90;2.42;;;10.30;99.90;;;;;;5078698;28;20059;-65
2023/05/11 02:29:26;;;;;;;7.18;2.85;;;10.30;99.90;;;;;;5092684;28;20475;-67
2023/05/11 02:31:59;;;;;;;4.65;2.90;;;10.30;99.90;;;;;;5092187;28;20058;-67
2023/05/11 02:34:31;;;;;;;7.95;2.95;;;10.30;99.90;;;;;;5095646;28;20578;-68
2023/05/11 02:37:05;;;;;;;5.07;2.60;;;10.30;99.90;;;;;;5071034;28;20036;-64
2023/05/11 02:39:34;;;;;;;5.07;2.60;;;10.20;99.90;;;;;;5085782;28;20073;-66
2023/05/11 02:42:17;;;;;;;4.68;2.90;;;10.20;99.90;;;;;;5087688;28;20055;-66
2023/05/11 02:44:59;;;;;;;7.32;3.00;;;10.20;99.90;;;;;;5092389;28;20031;-67
2023/05/11 02:47:32;;;;;;;8.48;2.60;;;10.20;99.90;;;;;;5088128;28;20036;-67
2023/05/11 02:50:02;;;;;;;5.18;2.67;;;10.20;99.90;;;;;;5089306;28;20434;-63
2023/05/11 02:52:30;;;;;;;5.30;2.53;;;10.20;99.90;;;;;;5088459;28;20024;-67
2023/05/11 02:55:00;;;;;;;7.53;2.58;;;10.20;99.90;;;;;;5091317;28;20051;-63
2023/05/11 02:57:25;;;;;;;4.18;2.60;;;10.20;99.90;;;;;;5087035;28;20065;-67
2023/05/11 02:59:52;;;;;;;6.78;2.55;;;10.10;99.90;;;;;;5088760;28;20063;-66
2023/05/11 03:02:17;;;;;;;5.88;2.47;;;10.20;99.90;;;;;;5088027;28;20644;-68
2023/05/11 03:04:43;;;;;;;4.20;2.35;;;10.20;99.90;;;;;;5086740;28;20028;-65
2023/05/11 03:07:09;;;;;;;9.75;2.70;;;10.20;99.90;;;;;;5081422;28;20833;-67
2023/05/11 03:09:35;;;;;;;6.80;3.10;;;10.20;99.90;;;;;;5087902;28;20059;-67
2023/05/11 03:12:02;;;;;;;6.38;2.53;;;10.20;99.90;;;;;;5088596;28;20519;-67
2023/05/11 03:14:31;;;;;;;4.80;2.47;;;10.20;99.90;;;;;;5092650;28;20419;-66
2023/05/11 03:16:58;;;;;;;8.40;2.53;;;10.20;99.90;;;;;;5078853;28;20160;-62
2023/05/11 03:19:25;;;;;;;8.80;3.05;;;10.10;99.90;;;;;;5074056;28;20032;-66
2023/05/11 03:21:52;;;;;;;8.32;2.40;;;10.20;99.90;;;;;;5089823;28;20122;-67
2023/05/11 03:24:18;;;;;;;5.20;2.65;;;10.20;99.90;;;;;;5080587;28;20027;-66
2023/05/11 03:26:45;;;;;;;4.50;2.50;;;10.10;99.90;;;;;;5101224;28;20028;-66
2023/05/11 03:29:13;;;;;;;8.30;2.58;;;10.10;99.90;;;;;;5105048;28;20045;-67
2023/05/11 03:31:39;;;;;;;6.30;3.38;;;10.10;99.90;;;;;;5081187;28;20118;-67
2023/05/11 03:34:04;;;;;;;5.85;3.15;;;10.10;99.90;;;;;;5096041;28;20149;-66
2023/05/11 03:36:32;;;;;;;4.60;2.40;;;10.10;99.90;;;;;;5093842;28;20032;-69
2023/05/11 03:38:59;;;;;;;6.47;2.78;;;10.10;99.90;;;;;;5103793;28;20046;-63
2023/05/11 03:41:27;;;;;;;11.43;2.45;;;10.10;99.90;;;;;;5091634;28;20040;-64
2023/05/11 03:43:56;;;;;;;3.40;2.40;;;10.20;99.90;;;;;;5090442;28;20093;-67
2023/05/11 03:46:23;;;;;;;5.25;2.55;;;10.10;99.90;;;;;;5086670;28;20019;-68
2023/05/11 03:48:50;;;;;;;5.30;2.80;;;10.10;99.90;;;;;;5074180;28;20032;-67
2023/05/11 03:51:16;;;;;;;8.55;2.83;;;10.10;99.90;;;;;;5091678;28;20702;-66
2023/05/11 03:53:42;;;;;;;6.25;2.90;;;10.10;99.90;;;;;;5094457;28;20040;-69
2023/05/11 03:56:07;;;;;;;5.47;2.60;;;10.10;99.90;;;;;;5086225;28;20032;-70
2023/05/11 03:58:38;;;;;;;6.60;3.03;;;10.10;99.90;;;;;;5077154;28;20072;-68
2023/05/11 04:01:05;;;;;;;;;;;10.10;99.90;;;;;;5097060;28;20092;-67
2023/05/11 04:03:30;;;;;;;4.28;2.50;;;10.10;99.90;;;;;;5093477;28;19911;-67
2023/05/11 04:05:56;;;;;;;4.97;2.97;;;10.10;99.90;;;;;;5085742;28;20372;-66
2023/05/11 04:08:22;;;;;;;7.65;2.80;;;10.20;99.90;;;;;;5089731;28;20176;-68
2023/05/11 04:10:47;;;;;;;5.45;3.20;;;10.20;99.90;;;;;;5096241;28;20038;-67
2023/05/11 04:13:13;;;;;;;7.47;2.85;;;10.20;99.90;;;;;;5087678;28;20035;-67
2023/05/11 04:15:38;;;;;;;4.85;2.97;;;10.20;99.90;;;;;;5086506;28;20052;-66
2023/05/11 04:18:04;;;;;;;5.43;3.28;;;10.30;99.90;;;;;;5086429;28;20081;-66
2023/05/11 04:20:30;;;;;;;6.85;3.53;;;10.30;99.90;;;;;;5085528;28;20384;-66
2023/05/11 04:22:55;;;;;;;6.45;3.05;;;10.30;99.90;;;;;;5085261;28;20038;-67
2023/05/11 04:25:21;;;;;;;6.53;2.80;;;10.30;99.90;;;;;;5086413;28;20275;-66
2023/05/11 04:27:47;;;;;;;9.07;3.05;;;10.30;99.90;;;;;;5088338;28;20107;-65
2023/05/11 04:30:12;;;;;;;7.97;3.00;;;10.30;99.90;;;;;;5086113;28;20032;-66
2023/05/11 04:32:38;;;;;;;7.85;2.78;;;10.30;99.90;;;;;;5097874;28;20190;-65
2023/05/11 04:35:04;;;;;;;6.57;3.30;;;10.30;99.90;;;;;;5092663;28;20024;-65
2023/05/11 04:37:30;;;;;;;9.68;2.95;;;10.30;99.90;;;;;;5080684;28;20469;-68
2023/05/11 04:39:56;;;;;;;7.40;3.20;;;10.30;99.90;;;;;;5090274;28;20111;-70
2023/05/11 04:42:22;;;;;;;5.57;2.85;;;10.30;99.90;;;;;;5077904;28;20080;-70
2023/05/11 04:44:47;;;;;;;5.03;2.88;;;10.40;99.90;;;;;;5086725;28;20028;-66
2023/05/11 04:47:13;;;;;;;6.22;3.20;;;10.40;99.90;;;;;;5082718;28;20081;-70
2023/05/11 04:49:39;;;;;;;4.70;2.90;;;10.40;99.90;;;;;;5078025;28;20032;-67
2023/05/11 04:52:05;;;;;;;6.97;2.80;;;10.40;99.90;;;;;;5077639;28;20038;-65
2023/05/11 04:54:30;;;;;;;5.75;2.90;;;10.50;99.90;;;;;;5086984;28;20048;-67
2023/05/11 04:56:56;;;;;;;6.07;3.15;;;10.50;99.90;;;;;;5085205;28;20036;-66
2023/05/11 04:59:21;;;;;;;7.10;2.90;;;10.60;99.90;;;;;;5088678;28;20032;-68
2023/05/11 05:01:47;;;;;;;7.55;3.30;;;10.60;99.90;;;;;;5081320;28;20105;-67
2023/05/11 05:04:13;;;;;;;5.45;2.90;;;10.60;99.90;;;;;;5084979;28;20664;-66
2023/05/11 05:06:38;;;;;;;5.45;3.00;;;10.60;99.90;;;;;;5084754;28;20036;-65
2023/05/11 05:09:04;;;;;;;4.85;2.97;;;10.70;99.90;;;;;;5083851;28;20477;-65
2023/05/11 05:11:30;;;;;;;6.93;3.10;;;10.70;99.90;;;;;;5091447;28;20036;-69
2023/05/11 05:13:56;;;;;;;8.75;3.50;;;10.70;99.90;;;;;;5090612;28;20408;-69
2023/05/11 05:16:21;;;;;;;5.07;2.95;;;10.70;99.90;;;;;;5090963;28;20020;-70
2023/05/11 05:18:47;;;;;;;9.75;2.90;;;10.60;99.90;;;;;;5092204;28;20043;-68
2023/05/11 05:21:12;;;;;;;7.15;2.95;;;10.60;99.90;;;;;;5083987;28;20634;-67
2023/05/11 05:23:38;;;;;;;6.03;2.72;;;10.50;99.90;;;;;;5086624;28;20070;-69
2023/05/11 05:26:04;;;;;;;6.10;2.75;;;10.50;99.90;;;;;;5083818;28;20033;-65
2023/05/11 05:28:29;;;;;;;8.20;3.03;;;10.50;99.90;;;;;;5092902;28;20460;-65
2023/05/11 05:30:55;;;;;;;6.28;2.85;;;10.50;99.90;;;;;;5087323;28;20093;-69
2023/05/11 05:33:20;;;;;;;5.13;2.88;;;10.40;99.90;;;;;;5093492;28;20034;-70
2023/05/11 05:35:46;;;;;;;5.57;3.08;;;10.40;99.90;;;;;;5088593;28;20104;-68
2023/05/11 05:38:12;;;;;;;8.48;3.22;;;10.40;99.90;;;;;;5084385;28;20043;-69
2023/05/11 05:40:38;;;;;;;6.72;2.92;;;10.40;99.90;;;;;;5090040;28;20143;-70
2023/05/11 05:43:05;;;;;;;5.07;3.03;;;10.40;99.90;;;;;;5083714;28;20032;-69
2023/05/11 05:45:30;;;;;;;6.32;3.33;;;10.50;99.90;;;;;;5088664;28;20020;-71
2023/05/11 05:47:59;;;;;;;6.03;3.10;;;10.40;99.90;;;;;;5077514;28;20079;-69
2023/05/11 05:50:25;;;;;;;11.38;3.00;;;10.40;99.90;;;;;;5078471;28;20028;-68
2023/05/11 05:52:50;;;;;;;8.00;3.60;;;10.40;99.90;;;;;;5086365;28;20069;-70
2023/05/11 05:55:16;;;;;;;8.90;4.32;;;10.40;99.90;;;;;;5088565;28;20407;-69
2023/05/11 05:57:41;;;;;;;4.95;3.20;;;10.40;99.90;;;;;;5088281;28;20036;-73
2023/05/11 06:00:08;;;;;;;7.90;3.22;;;10.40;99.90;;;;;;5086107;28;20077;-66
2023/05/11 06:02:34;;;;;;;7.50;3.53;;;10.40;99.90;;;;;;5082911;28;20056;-70
2023/05/11 06:05:00;;;;;;;8.70;3.60;;;10.50;99.90;;;;;;5087594;28;20081;-70
2023/05/11 06:07:25;;;;;;;8.93;3.60;;;10.50;99.90;;;;;;5083293;28;20648;-71
2023/05/11 06:09:51;;;;;;;7.93;3.47;;;10.40;99.90;;;;;;5090189;28;20039;-70
2023/05/11 06:12:17;;;;;;;8.00;3.80;;;10.40;99.90;;;;;;5089340;28;20115;-71
2023/05/11 06:14:42;;;;;;;8.23;3.45;;;10.40;99.90;;;;;;5086634;28;20027;-67
2023/05/11 06:17:08;;;;;;;7.35;3.78;;;10.40;99.90;;;;;;5084688;28;20036;-65
2023/05/11 06:19:34;;;;;;;6.20;3.75;;;10.40;99.90;;;;;;5090393;28;20028;-70
2023/05/11 06:21:59;;;;;;;6.20;3.40;;;10.50;99.90;;;;;;5090304;28;20036;-67
2023/05/11 06:24:25;;;;;;;8.48;3.90;;;10.40;99.90;;;;;;5086310;28;20439;-70
2023/05/11 06:26:51;;;;;;;9.88;3.75;;;10.40;99.90;;;;;;5088807;28;20036;-69
2023/05/11 06:29:18;;;;;;;8.25;3.97;;;10.40;99.90;;;;;;5085196;28;20043;-69
2023/05/11 06:31:44;;;;;;;8.40;3.83;;;10.40;99.90;;;;;;5090344;28;20028;-69
2023/05/11 06:34:09;;;;;;;6.45;3.63;;;10.40;99.90;;;;;;5090028;28;20103;-65
2023/05/11 06:36:35;;;;;;;7.47;3.25;;;10.50;99.90;;;;;;5090076;28;20346;-69
2023/05/11 06:39:01;;;;;;;7.25;3.83;;;10.40;99.90;;;;;;5089845;28;20084;-71
2023/05/11 06:41:26;;;;;;;7.82;3.80;;;10.50;99.90;;;;;;5089197;28;20182;-70
2023/05/11 06:43:52;;;;;;;8.13;3.55;;;10.50;99.90;;;;;;5096092;28;20032;-69
2023/05/11 06:46:18;;;;;;;5.95;3.63;;;10.60;99.90;;;;;;5093442;28;20027;-70
2023/05/11 06:48:44;;;;;;;7.43;4.07;;;10.60;99.90;;;;;;5089154;28;20031;-71
2023/05/11 06:51:10;;;;;;;8.27;3.90;;;10.70;99.90;;;;;;5089402;28;20118;-68
2023/05/11 06:53:36;;;;;;;6.07;3.63;;;10.70;99.90;;;;;;5089119;28;20131;-70
2023/05/11 06:56:02;;;;;;;8.18;3.63;;;10.70;99.90;;;;;;5090437;28;20119;-69
2023/05/11 06:58:28;;;;;;;6.97;3.50;;;10.70;99.90;;;;;;5092120;28;20055;-70
2023/05/11 07:00:55;;;;;;;8.48;3.65;;;10.80;99.90;;;;;;5089759;28;20055;-70
2023/05/11 07:03:20;;;;;;;6.53;3.90;;;10.80;99.90;;;;;;5091020;28;20095;-70
2023/05/11 07:05:46;;;;;;;6.72;3.80;;;10.80;99.90;;;;;;5089610;28;20114;-70
2023/05/11 07:08:12;;;;;;;5.78;3.75;;;10.90;99.90;;;;;;5088855;28;20028;-70
2023/05/11 07:10:37;;;;;;;9.27;4.10;;;11.00;99.90;;;;;;5089538;28;20414;-72
2023/05/11 07:13:04;;;;;;;8.18;3.92;;;11.00;99.90;;;;;;5089821;28;20595;-75
2023/05/11 07:15:30;;;;;;;7.68;4.40;;;11.00;99.90;;;;;;5088409;28;20028;-70
2023/05/11 07:17:55;;;;;;;6.65;3.90;;;11.00;99.90;;;;;;5095231;28;20161;-70
2023/05/11 07:20:21;;;;;;;6.55;3.80;;;11.10;99.90;;;;;;5087446;28;20032;-70
2023/05/11 07:22:46;;;;;;;6.65;3.90;;;11.10;99.90;;;;;;5088947;28;20047;-70
2023/05/11 07:25:12;;;;;;;9.93;4.47;;;11.00;99.90;;;;;;5088922;28;20047;-68
2023/05/11 07:27:38;;;;;;;9.82;4.22;;;11.00;99.90;;;;;;5088813;28;20103;-72
2023/05/11 07:30:04;;;;;;;8.25;4.35;;;11.00;99.90;;;;;;5091543;28;20645;-71
2023/05/11 07:32:31;;;;;;;7.00;4.20;;;11.10;99.90;;;;;;5088268;28;20566;-70
2023/05/11 07:34:56;;;;;;;6.47;4.00;;;11.00;99.90;;;;;;5089594;28;20039;-71
2023/05/11 07:37:22;;;;;;;6.93;4.30;;;11.00;99.90;;;;;;5097366;28;20036;-73
2023/05/11 07:39:48;;;;;;;6.72;4.20;;;11.10;99.90;;;;;;5088773;28;20161;-70
2023/05/11 07:42:13;;;;;;;15.02;4.80;;;11.10;99.90;;;;;;5088364;28;20384;-68
2023/05/11 07:44:39;;;;;;;7.97;4.35;;;11.10;99.90;;;;;;5089049;28;20035;-69
2023/05/11 07:47:05;;;;;;;9.18;4.68;;;11.00;99.90;;;;;;5089182;28;20039;-69
2023/05/11 07:49:30;;;;;;;17.55;4.30;;;11.10;99.90;;;;;;5088076;28;20047;-70
2023/05/11 07:51:56;;;;;;;7.00;4.05;;;11.20;99.90;;;;;;5088241;28;20051;-71
2023/05/11 07:54:21;;;;;;;12.15;4.70;;;11.10;99.90;;;;;;5087588;28;20445;-69
2023/05/11 07:56:47;;;;;;;9.13;4.55;;;11.00;99.90;;;;;;5091584;28;20036;-71
2023/05/11 07:59:13;;;;;;;8.88;4.50;;;11.10;99.90;;;;;;5089156;28;20047;-68
2023/05/11 08:01:38;;;;;;;8.20;4.07;;;11.20;99.90;;;;;;5088548;28;20063;-70
2023/05/11 08:04:04;;;;;;;7.57;4.57;;;11.20;99.90;;;;;;5088344;28;20124;-69
2023/05/11 08:06:30;;;;;;;13.93;4.85;;;11.20;99.90;;;;;;5088380;28;20606;-69
2023/05/11 08:08:55;;;;;;;8.23;4.15;;;11.30;99.90;;;;;;5087975;28;20553;-67
2023/05/11 08:11:21;;;;;;;7.63;3.67;;;11.20;99.90;;;;;;5092479;28;20025;-71
2023/05/11 08:13:46;;;;;;;5.95;3.90;;;11.20;99.90;;;;;;5077290;28;20115;-69
2023/05/11 08:16:12;;;;;;;7.43;4.18;;;11.20;99.90;;;;;;5088589;28;20040;-65
2023/05/11 08:18:38;;;;;;;6.22;3.83;;;11.20;99.90;;;;;;5092125;28;20485;-70
2023/05/11 08:21:04;;;;;;;6.60;3.75;;;11.30;99.90;;;;;;5088535;28;20036;-68
2023/05/11 08:23:29;;;;;;;5.70;3.75;;;11.40;99.90;;;;;;5084318;28;20024;-68
2023/05/11 08:25:55;;;;;;;5.55;3.60;;;11.50;99.90;;;;;;5084661;28;20140;-68
2023/05/11 08:28:21;;;;;;;4.72;2.70;;;11.60;99.90;;;;;;5086224;28;20028;-69
2023/05/11 08:30:56;;;;;;;4.55;2.42;;;11.60;99.90;;;;;;5086451;28;20020;-67
2023/05/11 08:33:23;;;;;;;5.70;3.17;;;11.60;99.90;;;;;;5080216;28;20102;-69
2023/05/11 08:35:49;;;;;;;4.32;2.90;;;11.60;99.90;;;;;;5083900;28;20101;-70
2023/05/11 08:38:15;;;;;;;3.30;2.08;;;11.50;99.90;;;;;;5087124;28;20412;-69
2023/05/11 08:40:46;;;;;;;2.58;1.85;;;11.60;99.90;;;;;;5085842;28;20032;-70
2023/05/11 08:43:13;;;;;;;2.88;1.92;;;11.60;99.90;;;;;;5083804;28;20029;-66
2023/05/11 08:45:43;;;;;;;2.97;2.20;;;11.80;99.90;;;;;;5083568;28;20485;-70
2023/05/11 08:48:10;;;;;;;2.97;2.15;;;11.80;99.90;;;;;;5086207;28;20468;-72
2023/05/11 08:50:36;;;;;;;3.17;2.30;;;11.70;99.90;;;;;;5083755;28;20052;-70
2023/05/11 08:53:01;;;;;;;5.07;2.25;;;11.70;99.90;;;;;;5082278;28;20112;-72
2023/05/11 08:55:28;;;;;;;3.20;2.10;;;11.80;99.90;;;;;;5084655;28;20155;-69
2023/05/11 08:57:57;;;;;;;3.67;2.13;;;11.90;99.90;;;;;;5087847;28;20034;-70
2023/05/11 09:00:23;;;;;;;3.10;2.10;;;12.00;99.90;;;;;;5092362;28;20032;-69
2023/05/11 09:02:49;;;;;;;10.80;1.40;;;12.10;99.90;;;;;;5078555;28;20042;-69
2023/05/11 09:05:15;;;;;;;2.63;1.17;;;12.10;99.90;;;;;;5085074;28;20035;-66
2023/05/11 09:07:42;;;;;;;2.30;1.30;;;12.00;99.90;;;;;;5086310;28;20078;-70
2023/05/11 09:10:08;;;;;;;1.98;1.27;;;11.90;99.90;;;;;;5079308;28;20046;-69
2023/05/11 09:12:34;;;;;;;2.50;1.45;;;11.90;99.90;;;;;;5084622;28;20111;-69
2023/05/11 09:15:00;;;;;;;4.55;1.30;;;11.90;99.90;;;;;;5089394;28;20075;-68
2023/05/11 09:17:27;;;;;;;1.77;1.38;;;12.00;99.90;;;;;;5079353;28;20028;-71
2023/05/11 09:19:58;;;;;;;1.83;1.40;;;12.10;99.90;;;;;;5083348;28;20046;-69
2023/05/11 09:22:24;;;;;;;3.28;1.85;;;12.00;99.90;;;;;;5083925;28;20028;-70
2023/05/11 09:24:50;;;;;;;2.90;1.80;;;12.00;99.90;;;;;;5087346;28;20114;-70
2023/05/11 09:27:15;;;;;;;4.45;1.83;;;12.00;99.90;;;;;;5085337;28;20555;-67
2023/05/11 09:29:41;;;;;;;3.30;1.98;;;12.10;99.90;;;;;;5084911;28;20082;-70
2023/05/11 09:32:07;;;;;;;3.42;2.30;;;12.10;99.90;;;;;;5083757;28;20028;-70
2023/05/11 09:34:32;;;;;;;4.10;2.40;;;12.20;99.90;;;;;;5084171;28;20115;-69
2023/05/11 09:36:58;;;;;;;3.67;2.08;;;12.20;99.90;;;;;;5082202;28;20083;-70
2023/05/11 09:39:34;;;;;;;3.83;2.10;;;12.30;99.90;;;;;;5085129;28;20032;-70
2023/05/11 09:42:20;;;;;;;3.03;1.98;;;12.40;99.90;;;;;;5086190;28;20043;-71
2023/05/11 09:44:47;;;;;;;4.47;2.33;;;12.50;99.90;;;;;;5082008;28;20102;-73
2023/05/11 09:47:17;;;;;;;6.43;2.30;;;12.50;99.90;;;;;;5086960;28;20032;-69
2023/05/11 09:49:44;;;;;;;;;;;12.50;99.90;;;;;;5092397;28;20031;-70
2023/05/11 09:52:11;;;;;;;4.35;2.40;;;12.60;99.90;;;;;;5105264;28;19915;-71
2023/05/11 09:54:44;;;;;;;2.72;1.88;;;12.60;99.90;;;;;;5098104;28;20604;-71
2023/05/11 09:57:30;;;;;;;7.78;3.03;;;12.60;99.90;;;;;;5106490;28;20110;-70
2023/05/11 09:59:57;;;;;;;2.90;1.88;;;12.60;99.90;;;;;;5086219;28;20040;-69
2023/05/11 10:02:28;;;;;;;3.42;1.90;;;12.70;99.90;;;;;;5088780;28;20067;-68
2023/05/11 10:04:54;;;;;;;;;;;12.70;99.90;;;;;;5096877;28;20019;-69
2023/05/11 10:07:34;;;;;;;9.18;3.40;;;12.70;99.90;;;;;;5096699;28;19958;-65
2023/05/11 10:10:05;;;;;;;5.18;2.10;;;12.80;99.90;;;;;;5088774;28;20039;-69
2023/05/11 10:12:32;;;;;;;3.20;2.20;;;12.80;99.90;;;;;;5093404;28;20388;-70
2023/05/11 10:15:06;;;;;;;2.63;2.00;;;12.90;99.90;;;;;;5107184;28;20055;-69
2023/05/11 10:17:32;;;;;;;2.45;1.70;;;12.90;99.90;;;;;;5084860;28;20028;-70
2023/05/11 10:19:59;;;;;;;2.38;1.73;;;12.90;99.90;;;;;;5089169;28;20094;-69
2023/05/11 10:22:26;;;;;;;3.65;1.73;;;12.90;99.90;;;;;;5104926;28;20031;-70
2023/05/11 10:24:52;;;;;;;3.28;2.10;;;12.90;99.90;;;;;;5102523;28;20074;-70
2023/05/11 10:27:19;;;;;;;3.92;2.30;;;12.90;99.90;;;;;;5102530;28;20054;-65
2023/05/11 10:29:46;;;;;;;4.85;2.15;;;12.90;99.90;;;;;;5093979;28;20444;-68
2023/05/11 10:32:13;;;;;;;2.95;1.50;;;12.90;99.90;;;;;;5098861;28;20111;-70
2023/05/11 10:34:41;;;;;;;2.58;1.95;;;12.80;99.90;;;;;;5105442;28;20032;-69
2023/05/11 10:37:08;;;;;;;2.65;1.80;;;12.80;99.90;;;;;;5093990;28;20032;-70
2023/05/11 10:39:41;;;;;;;3.95;1.65;;;12.70;99.90;;;;;;5087843;28;20031;-70
2023/05/11 10:42:25;;;;;;;2.88;1.77;;;12.60;99.90;;;;;;5100537;28;20028;-72
2023/05/11 10:45:11;;;;;;;2.65;1.60;;;12.50;99.90;;;;;;5093393;28;20138;-71
2023/05/11 10:47:55;;;;;;;3.17;1.77;;;12.40;99.90;;;;;;5057523;28;20040;-71
2023/05/11 10:50:38;;;;;;;2.25;1.60;;;12.40;99.90;;;;;;5096400;28;20077;-64
2023/05/11 10:53:30;;;;;;;3.50;2.00;;;12.40;99.90;;;;;;5098815;28;20019;-68
2023/05/11 10:56:34;;;;;;;4.45;2.00;;;12.50;99.90;;;;;;5100657;28;20455;-69
2023/05/11 10:59:19;;;;;;;2.60;1.80;;;12.60;99.90;;;;;;5097824;28;20028;-67
2023/05/11 11:01:45;;;;;;;5.07;1.42;;;12.70;99.90;;;;;;5094456;28;20066;-67
2023/05/11 11:04:13;;;;;;;2.10;1.48;;;12.90;99.90;;;;;;5091820;28;20140;-69
2023/05/11 11:06:41;;;;;;;5.47;1.73;;;12.80;99.90;;;;;;5100582;28;20119;-69
2023/05/11 11:09:14;;;;;;;2.83;1.73;;;13.00;99.90;;;;;;5109556;28;20031;-68
2023/05/11 11:11:49;;;;;;;3.47;1.77;;;13.20;99.90;;;;;;5094267;28;20689;-68
2023/05/11 11:14:17;;;;;;;4.15;2.00;;;13.30;99.90;;;;;;5091876;28;20024;-70
2023/05/11 11:17:16;;;;;;;2.72;1.70;;;13.30;99.90;;;;;;5096790;28;20031;-67
2023/05/11 11:19:42;;;;;;;2.78;2.00;;;13.10;99.90;;;;;;5088066;28;20032;-70
2023/05/11 11:22:33;;;;;;;5.25;1.60;;;13.10;99.90;;;;;;5109629;28;20031;-71
2023/05/11 11:24:59;;;;;;;1.95;1.52;;;13.10;99.90;;;;;;5102546;28;20063;-71
2023/05/11 11:27:39;;;;;;;2.65;1.60;;;13.00;99.90;;;;;;5100592;28;20035;-68
2023/05/11 11:30:21;;;;;;;2.05;1.45;;;12.90;99.90;;;;;;5098955;28;20035;-69
2023/05/11 11:33:07;;;;;;;3.28;1.40;;;12.80;99.90;;;;;;5089576;28;20032;-73
2023/05/11 11:35:42;;;;;;;4.38;1.40;;;12.80;99.90;;;;;;5095015;28;20039;-71
2023/05/11 11:38:11;;;;;;;2.70;1.25;;;12.70;99.90;;;;;;5105786;28;20031;-71
2023/05/11 11:40:37;;;;;;;3.00;1.35;;;12.70;99.90;;;;;;5090506;28;20096;-70
2023/05/11 11:43:11;;;;;;;6.22;1.33;;;12.80;99.90;;;;;;5104660;28;20035;-74
2023/05/11 11:45:38;;;;;;;2.03;1.55;;;12.70;99.90;;;;;;5091808;28;20035;-70
2023/05/11 11:48:27;;;;;;;3.25;1.33;;;13.00;99.90;;;;;;5093278;28;20549;-70
2023/05/11 11:51:02;;;;;;;1.73;1.08;;;13.10;99.90;;;;;;5096675;28;20031;-73
2023/05/11 11:53:36;;;;;;;3.00;1.00;;;13.20;99.90;;;;;;5102512;28;20126;-69
2023/05/11 11:56:03;;;;;;;3.08;1.20;;;13.20;99.90;;;;;;5108712;28;20032;-69
2023/05/11 11:58:41;;;;;;;1.90;1.10;;;13.20;99.90;;;;;;5091989;28;20043;-70
2023/05/11 12:01:12;;;;;;;3.85;1.25;;;13.20;99.90;;;;;;5106449;28;20535;-69
2023/05/11 12:03:40;;;;;;;1.58;1.00;;;13.30;99.90;;;;;;5104152;28;20092;-70
2023/05/11 12:06:08;;;;;;;1.23;0.90;;;13.30;99.90;;;;;;5083072;28;20073;-71
2023/05/11 12:08:34;;;;;;;1.20;0.80;;;13.40;99.90;;;;;;5107518;28;20027;-72
2023/05/11 12:11:02;;;;;;;1.88;1.02;;;13.30;99.90;;;;;;5104565;28;20028;-68
2023/05/11 12:13:28;;;;;;;1.23;0.90;;;13.40;99.90;;;;;;5099641;28;20031;-66
2023/05/11 12:16:07;;;;;;;1.55;1.00;;;13.40;99.90;;;;;;5082214;28;20092;-68
2023/05/11 12:18:32;;;;;;;2.53;1.10;;;13.30;99.90;;;;;;5086512;28;20396;-70
2023/05/11 12:20:58;;;;;;;2.80;1.20;;;13.30;99.90;;;;;;5087202;28;20036;-71
2023/05/11 12:23:24;;;;;;;1.38;1.10;;;13.30;99.90;;;;;;5107433;28;20024;-65
2023/05/11 12:26:06;;;;;;;2.40;1.27;;;13.30;99.90;;;;;;5107811;28;20043;-70
2023/05/11 12:28:32;;;;;;;3.65;1.30;;;13.40;99.90;;;;;;5097874;28;20023;-70
2023/05/11 12:30:58;;;;;;;2.42;1.30;;;13.40;99.90;;;;;;5096195;28;20105;-69
2023/05/11 12:33:23;;;;;;;3.55;1.40;;;13.60;99.90;;;;;;5096328;28;20059;-71
2023/05/11 12:35:53;;;;;;;2.15;1.38;;;13.60;99.90;;;;;;5066839;28;20517;-71
2023/05/11 12:38:20;;;;;;;4.13;1.20;;;13.50;99.90;;;;;;5083363;28;20024;-70
2023/05/11 12:40:50;;;;;;;1.30;1.13;;;13.50;99.90;;;;;;5077280;28;20032;-69
2023/05/11 12:43:20;;;;;;;4.82;1.80;;;13.50;99.90;;;;;;5090257;28;20040;-68
2023/05/11 12:45:46;;;;;;;5.63;1.75;;;13.30;99.90;;;;;;5092836;28;20111;-71
2023/05/11 12:48:12;;;;;;;2.72;1.50;;;13.20;99.90;;;;;;5078334;28;20032;-68
2023/05/11 12:50:47;;;;;;;2.70;1.75;;;13.10;99.90;;;;;;5079574;28;20117;-69
2023/05/11 12:53:18;;;;;;;2.53;1.65;;;13.20;99.90;;;;;;5088709;28;20084;-68